sensor_id;sensor_type;location;lat;lon;timestamp;temperature;humidity
22676;DHT22;12521;43.310;21.876;2023-04-16T00:02:07;10.2;96.0
22676;DHT22;12521;43.310;21.876;2023-04-16T00:06:43;10.2;96.0
22676;DHT22;12521;43.310;21.876;2023-04-16T00:11:21;10.2;96.0
22676;DHT22;12521;43.310;21.876;2023-04-16T00:15:58;10.2;96.0
22676;DHT22;12521;43.310;21.876;2023-04-16T00:20:35;10.2;96.0
22676;DHT22;12521;43.310;21.876;2023-04-16T00:25:13;10.2;96.0
22676;DHT22;12521;43.310;21.876;2023-04-16T00:29:51;10.2;96.0
22676;DHT22;12521;43.310;21.876;2023-04-16T00:34:27;10.2;96.0
22676;DHT22;12521;43.310;21.876;2023-04-16T00:39:04;10.2;96.0
22676;DHT22;12521;43.310;21.876;2023-04-16T00:43:41;10.2;96.0
22676;DHT22;12521;43.310;21.876;2023-04-16T00:48:20;10.2;96.0
22676;DHT22;12521;43.310;21.876;2023-04-16T00:52:57;10.1;96.0
22676;DHT22;12521;43.310;21.876;2023-04-16T00:57:34;10.1;96.0
22676;DHT22;12521;43.310;21.876;2023-04-16T01:02:11;10.1;96.0
22676;DHT22;12521;43.310;21.876;2023-04-16T01:06:48;10.1;96.0
22676;DHT22;12521;43.310;21.876;2023-04-16T01:11:24;10.0;96.0
22676;DHT22;12521;43.310;21.876;2023-04-16T01:16:02;10.0;96.0
22676;DHT22;12521;43.310;21.876;2023-04-16T01:20:41;10.0;96.0
22676;DHT22;12521;43.310;21.876;2023-04-16T01:25:18;10.0;96.0
22676;DHT22;12521;43.310;21.876;2023-04-16T01:29:54;10.0;96.0
22676;DHT22;12521;43.310;21.876;2023-04-16T01:34:31;9.8;96.0
22676;DHT22;12521;43.310;21.876;2023-04-16T01:39:08;9.8;96.0
22676;DHT22;12521;43.310;21.876;2023-04-16T01:43:44;9.6;96.0
22676;DHT22;12521;43.310;21.876;2023-04-16T01:48:21;9.6;96.0
22676;DHT22;12521;43.310;21.876;2023-04-16T01:52:58;9.4;96.0
22676;DHT22;12521;43.310;21.876;2023-04-16T01:57:35;9.4;96.0
22676;DHT22;12521;43.310;21.876;2023-04-16T02:02:15;9.3;96.0
22676;DHT22;12521;43.310;21.876;2023-04-16T02:06:52;9.3;96.0
22676;DHT22;12521;43.310;21.876;2023-04-16T02:11:28;9.3;96.0
22676;DHT22;12521;43.310;21.876;2023-04-16T02:16:06;9.3;96.0
22676;DHT22;12521;43.310;21.876;2023-04-16T02:20:46;9.3;96.0
22676;DHT22;12521;43.310;21.876;2023-04-16T02:25:23;9.3;96.0
22676;DHT22;12521;43.310;21.876;2023-04-16T02:30:00;9.3;96.0
22676;DHT22;12521;43.310;21.876;2023-04-16T02:34:36;9.4;96.0
22676;DHT22;12521;43.310;21.876;2023-04-16T02:39:13;9.4;96.0
22676;DHT22;12521;43.310;21.876;2023-04-16T02:43:50;9.5;96.0
22676;DHT22;12521;43.310;21.876;2023-04-16T02:48:26;9.5;96.0
22676;DHT22;12521;43.310;21.876;2023-04-16T02:53:03;9.5;96.0
22676;DHT22;12521;43.310;21.876;2023-04-16T02:57:40;9.5;96.0
22676;DHT22;12521;43.310;21.876;2023-04-16T03:02:17;9.5;96.0
22676;DHT22;12521;43.310;21.876;2023-04-16T03:06:54;9.5;96.0
22676;DHT22;12521;43.310;21.876;2023-04-16T03:11:31;9.4;96.0
22676;DHT22;12521;43.310;21.876;2023-04-16T03:16:08;9.4;96.0
22676;DHT22;12521;43.310;21.876;2023-04-16T03:20:45;9.4;96.0
22676;DHT22;12521;43.310;21.876;2023-04-16T03:25:27;9.2;96.0
22676;DHT22;12521;43.310;21.876;2023-04-16T03:30:09;9.2;96.0
22676;DHT22;12521;43.310;21.876;2023-04-16T03:34:49;9.1;96.0
22676;DHT22;12521;43.310;21.876;2023-04-16T03:39:26;9.1;96.0
22676;DHT22;12521;43.310;21.876;2023-04-16T03:44:02;9.1;96.0
22676;DHT22;12521;43.310;21.876;2023-04-16T03:48:40;9.1;96.0
22676;DHT22;12521;43.310;21.876;2023-04-16T03:53:17;9.2;96.0
22676;DHT22;12521;43.310;21.876;2023-04-16T03:57:53;9.2;96.0
22676;DHT22;12521;43.310;21.876;2023-04-16T04:02:30;9.4;96.0
22676;DHT22;12521;43.310;21.876;2023-04-16T04:07:06;9.4;96.0
22676;DHT22;12521;43.310;21.876;2023-04-16T04:11:43;9.4;96.0
22676;DHT22;12521;43.310;21.876;2023-04-16T04:16:19;9.4;96.0
22676;DHT22;12521;43.310;21.876;2023-04-16T04:20:56;9.4;96.0
22676;DHT22;12521;43.310;21.876;2023-04-16T04:25:34;9.3;96.0
22676;DHT22;12521;43.310;21.876;2023-04-16T04:30:11;9.3;96.0
22676;DHT22;12521;43.310;21.876;2023-04-16T04:34:48;9.2;96.0
22676;DHT22;12521;43.310;21.876;2023-04-16T04:39:24;9.2;96.0
22676;DHT22;12521;43.310;21.876;2023-04-16T04:44:00;9.2;96.0
22676;DHT22;12521;43.310;21.876;2023-04-16T04:48:36;9.2;96.0
22676;DHT22;12521;43.310;21.876;2023-04-16T04:53:13;9.2;96.0
22676;DHT22;12521;43.310;21.876;2023-04-16T04:57:49;9.2;96.0
22676;DHT22;12521;43.310;21.876;2023-04-16T05:02:26;9.3;96.0
22676;DHT22;12521;43.310;21.876;2023-04-16T05:07:02;9.3;96.0
22676;DHT22;12521;43.310;21.876;2023-04-16T05:11:41;9.4;96.0
22676;DHT22;12521;43.310;21.876;2023-04-16T05:16:18;9.4;96.0
22676;DHT22;12521;43.310;21.876;2023-04-16T05:20:55;9.4;96.0
22676;DHT22;12521;43.310;21.876;2023-04-16T05:25:32;9.6;96.0
22676;DHT22;12521;43.310;21.876;2023-04-16T05:30:11;9.6;96.0
22676;DHT22;12521;43.310;21.876;2023-04-16T05:34:49;9.8;96.0
22676;DHT22;12521;43.310;21.876;2023-04-16T05:39:26;9.8;96.0
22676;DHT22;12521;43.310;21.876;2023-04-16T05:44:03;10.1;96.0
22676;DHT22;12521;43.310;21.876;2023-04-16T05:48:40;10.1;96.0
22676;DHT22;12521;43.310;21.876;2023-04-16T05:53:17;10.2;96.0
22676;DHT22;12521;43.310;21.876;2023-04-16T05:57:54;10.2;96.0
22676;DHT22;12521;43.310;21.876;2023-04-16T06:02:30;10.4;96.0
22676;DHT22;12521;43.310;21.876;2023-04-16T06:07:07;10.4;96.0
22676;DHT22;12521;43.310;21.876;2023-04-16T06:11:44;10.4;96.0
22676;DHT22;12521;43.310;21.876;2023-04-16T06:16:21;10.4;96.0
22676;DHT22;12521;43.310;21.876;2023-04-16T06:20:58;10.4;96.0
22676;DHT22;12521;43.310;21.876;2023-04-16T06:25:35;10.5;96.0
22676;DHT22;12521;43.310;21.876;2023-04-16T06:30:15;10.5;96.0
22676;DHT22;12521;43.310;21.876;2023-04-16T06:34:52;10.7;96.0
22676;DHT22;12521;43.310;21.876;2023-04-16T06:39:30;10.7;96.0
22676;DHT22;12521;43.310;21.876;2023-04-16T06:44:06;10.9;96.0
22676;DHT22;12521;43.310;21.876;2023-04-16T06:48:43;10.9;96.0
22676;DHT22;12521;43.310;21.876;2023-04-16T06:53:19;11.1;96.0
22676;DHT22;12521;43.310;21.876;2023-04-16T06:57:56;11.1;96.0
22676;DHT22;12521;43.310;21.876;2023-04-16T07:02:32;11.3;96.0
22676;DHT22;12521;43.310;21.876;2023-04-16T07:07:10;11.3;96.0
22676;DHT22;12521;43.310;21.876;2023-04-16T07:11:46;11.5;96.0
22676;DHT22;12521;43.310;21.876;2023-04-16T07:16:23;11.5;96.0
22676;DHT22;12521;43.310;21.876;2023-04-16T07:20:59;11.5;96.0
22676;DHT22;12521;43.310;21.876;2023-04-16T07:25:35;11.7;96.0
22676;DHT22;12521;43.310;21.876;2023-04-16T07:30:12;11.7;96.0
22676;DHT22;12521;43.310;21.876;2023-04-16T07:34:48;12.0;96.0
22676;DHT22;12521;43.310;21.876;2023-04-16T07:39:24;12.0;96.0
22676;DHT22;12521;43.310;21.876;2023-04-16T07:44:01;12.4;96.0
22676;DHT22;12521;43.310;21.876;2023-04-16T07:48:38;12.4;96.0
22676;DHT22;12521;43.310;21.876;2023-04-16T07:53:15;12.9;96.0
22676;DHT22;12521;43.310;21.876;2023-04-16T07:57:51;12.9;96.0
22676;DHT22;12521;43.310;21.876;2023-04-16T08:02:28;13.4;96.0
22676;DHT22;12521;43.310;21.876;2023-04-16T08:07:05;13.4;96.0
22676;DHT22;12521;43.310;21.876;2023-04-16T08:11:43;13.4;96.0
22676;DHT22;12521;43.310;21.876;2023-04-16T08:16:20;13.9;96.0
22676;DHT22;12521;43.310;21.876;2023-04-16T08:20:57;13.9;96.0
22676;DHT22;12521;43.310;21.876;2023-04-16T08:25:35;14.4;96.0
22676;DHT22;12521;43.310;21.876;2023-04-16T08:30:12;14.4;96.0
22676;DHT22;12521;43.310;21.876;2023-04-16T08:34:49;14.8;96.0
22676;DHT22;12521;43.310;21.876;2023-04-16T08:39:26;14.8;96.0
22676;DHT22;12521;43.310;21.876;2023-04-16T08:44:20;15.3;96.0
22676;DHT22;12521;43.310;21.876;2023-04-16T08:49:14;15.3;96.0
22676;DHT22;12521;43.310;21.876;2023-04-16T08:54:08;15.7;96.0
22676;DHT22;12521;43.310;21.876;2023-04-16T08:59:09;15.7;96.0
22676;DHT22;12521;43.310;21.876;2023-04-16T09:03:48;16.1;94.0
22676;DHT22;12521;43.310;21.876;2023-04-16T09:08:28;16.1;94.0
22676;DHT22;12521;43.310;21.876;2023-04-16T09:13:06;16.4;92.0
22676;DHT22;12521;43.310;21.876;2023-04-16T09:17:42;16.4;92.0
22676;DHT22;12521;43.310;21.876;2023-04-16T09:22:19;16.6;90.0
22676;DHT22;12521;43.310;21.876;2023-04-16T09:26:58;16.6;90.0
22676;DHT22;12521;43.310;21.876;2023-04-16T09:31:36;16.6;90.0
22676;DHT22;12521;43.310;21.876;2023-04-16T09:36:13;16.6;90.0
22676;DHT22;12521;43.310;21.876;2023-04-16T09:41:07;16.6;90.0
22676;DHT22;12521;43.310;21.876;2023-04-16T09:45:51;16.5;89.0
22676;DHT22;12521;43.310;21.876;2023-04-16T09:50:27;16.5;89.0
22676;DHT22;12521;43.310;21.876;2023-04-16T09:55:06;17.2;88.0
22676;DHT22;12521;43.310;21.876;2023-04-16T09:59:42;17.2;88.0
22676;DHT22;12521;43.310;21.876;2023-04-16T10:04:19;17.8;87.0
22676;DHT22;12521;43.310;21.876;2023-04-16T10:08:55;17.8;87.0
22676;DHT22;12521;43.310;21.876;2023-04-16T10:13:36;18.6;85.0
22676;DHT22;12521;43.310;21.876;2023-04-16T10:18:16;18.6;85.0
22676;DHT22;12521;43.310;21.876;2023-04-16T10:22:54;19.4;83.0
22676;DHT22;12521;43.310;21.876;2023-04-16T10:27:35;19.4;83.0
22676;DHT22;12521;43.310;21.876;2023-04-16T10:32:17;20.0;81.0
22676;DHT22;12521;43.310;21.876;2023-04-16T10:36:55;20.0;81.0
22676;DHT22;12521;43.310;21.876;2023-04-16T10:41:32;20.0;81.0
22676;DHT22;12521;43.310;21.876;2023-04-16T10:46:34;20.5;80.0
22676;DHT22;12521;43.310;21.876;2023-04-16T10:51:32;20.5;80.0
22676;DHT22;12521;43.310;21.876;2023-04-16T10:56:12;20.4;79.0
22676;DHT22;12521;43.310;21.876;2023-04-16T11:00:51;20.4;79.0
22676;DHT22;12521;43.310;21.876;2023-04-16T11:05:45;20.2;78.0
22676;DHT22;12521;43.310;21.876;2023-04-16T11:10:22;20.2;78.0
22676;DHT22;12521;43.310;21.876;2023-04-16T11:15:06;20.2;78.0
22676;DHT22;12521;43.310;21.876;2023-04-16T11:19:49;20.2;78.0
22676;DHT22;12521;43.310;21.876;2023-04-16T11:24:30;20.3;78.0
22676;DHT22;12521;43.310;21.876;2023-04-16T11:29:14;20.3;78.0
22676;DHT22;12521;43.310;21.876;2023-04-16T11:33:51;20.5;78.0
22676;DHT22;12521;43.310;21.876;2023-04-16T11:38:38;20.5;78.0
22676;DHT22;12521;43.310;21.876;2023-04-16T11:43:16;20.6;77.0
22676;DHT22;12521;43.310;21.876;2023-04-16T11:47:53;20.6;77.0
22676;DHT22;12521;43.310;21.876;2023-04-16T11:52:33;20.5;77.0
22676;DHT22;12521;43.310;21.876;2023-04-16T11:57:10;20.5;77.0
22676;DHT22;12521;43.310;21.876;2023-04-16T12:01:52;20.5;77.0
22676;DHT22;12521;43.310;21.876;2023-04-16T12:06:30;20.4;76.0
22676;DHT22;12521;43.310;21.876;2023-04-16T12:11:07;20.4;76.0
22676;DHT22;12521;43.310;21.876;2023-04-16T12:15:49;20.7;76.0
22676;DHT22;12521;43.310;21.876;2023-04-16T12:20:41;20.7;76.0
22676;DHT22;12521;43.310;21.876;2023-04-16T12:25:19;21.0;76.0
22676;DHT22;12521;43.310;21.876;2023-04-16T12:30:08;21.0;76.0
22676;DHT22;12521;43.310;21.876;2023-04-16T12:34:50;21.2;76.0
22676;DHT22;12521;43.310;21.876;2023-04-16T12:39:26;21.2;76.0
22676;DHT22;12521;43.310;21.876;2023-04-16T12:44:09;21.4;75.0
22676;DHT22;12521;43.310;21.876;2023-04-16T12:48:46;21.4;75.0
22676;DHT22;12521;43.310;21.876;2023-04-16T12:53:22;21.0;75.0
22676;DHT22;12521;43.310;21.876;2023-04-16T12:57:59;21.0;75.0
22676;DHT22;12521;43.310;21.876;2023-04-16T13:02:35;20.7;75.0
22676;DHT22;12521;43.310;21.876;2023-04-16T13:07:12;20.7;75.0
22676;DHT22;12521;43.310;21.876;2023-04-16T13:11:48;20.7;75.0
22676;DHT22;12521;43.310;21.876;2023-04-16T13:16:25;20.6;76.0
22676;DHT22;12521;43.310;21.876;2023-04-16T13:21:01;20.6;76.0
22676;DHT22;12521;43.310;21.876;2023-04-16T13:25:38;20.5;76.0
22676;DHT22;12521;43.310;21.876;2023-04-16T13:30:15;20.5;76.0
22676;DHT22;12521;43.310;21.876;2023-04-16T13:34:52;20.3;76.0
22676;DHT22;12521;43.310;21.876;2023-04-16T13:39:30;20.3;76.0
22676;DHT22;12521;43.310;21.876;2023-04-16T13:44:07;20.1;77.0
22676;DHT22;12521;43.310;21.876;2023-04-16T13:48:44;20.1;77.0
22676;DHT22;12521;43.310;21.876;2023-04-16T13:53:21;19.9;79.0
22676;DHT22;12521;43.310;21.876;2023-04-16T13:57:58;19.9;79.0
22676;DHT22;12521;43.310;21.876;2023-04-16T14:02:35;19.7;80.0
22676;DHT22;12521;43.310;21.876;2023-04-16T14:07:14;19.7;80.0
22676;DHT22;12521;43.310;21.876;2023-04-16T14:11:51;19.7;80.0
22676;DHT22;12521;43.310;21.876;2023-04-16T14:16:28;19.2;84.0
22676;DHT22;12521;43.310;21.876;2023-04-16T14:21:05;19.2;84.0
22676;DHT22;12521;43.310;21.876;2023-04-16T14:25:41;18.8;87.0
22676;DHT22;12521;43.310;21.876;2023-04-16T14:30:18;18.8;87.0
22676;DHT22;12521;43.310;21.876;2023-04-16T14:34:55;18.6;88.0
22676;DHT22;12521;43.310;21.876;2023-04-16T14:39:32;18.6;88.0
22676;DHT22;12521;43.310;21.876;2023-04-16T14:44:09;18.3;89.0
22676;DHT22;12521;43.310;21.876;2023-04-16T14:48:46;18.3;89.0
22676;DHT22;12521;43.310;21.876;2023-04-16T14:53:23;18.2;90.0
22676;DHT22;12521;43.310;21.876;2023-04-16T14:58:00;18.2;90.0
22676;DHT22;12521;43.310;21.876;2023-04-16T15:02:37;18.1;90.0
22676;DHT22;12521;43.310;21.876;2023-04-16T15:07:13;18.1;90.0
22676;DHT22;12521;43.310;21.876;2023-04-16T15:11:49;18.1;90.0
22676;DHT22;12521;43.310;21.876;2023-04-16T15:16:26;18.2;90.0
22676;DHT22;12521;43.310;21.876;2023-04-16T15:21:03;18.2;90.0
22676;DHT22;12521;43.310;21.876;2023-04-16T15:25:39;18.4;91.0
22676;DHT22;12521;43.310;21.876;2023-04-16T15:30:16;18.4;91.0
22676;DHT22;12521;43.310;21.876;2023-04-16T15:34:52;18.4;92.0
22676;DHT22;12521;43.310;21.876;2023-04-16T15:39:31;18.4;92.0
22676;DHT22;12521;43.310;21.876;2023-04-16T15:44:07;18.4;92.0
22676;DHT22;12521;43.310;21.876;2023-04-16T15:48:44;18.4;92.0
22676;DHT22;12521;43.310;21.876;2023-04-16T15:53:20;18.3;93.0
22676;DHT22;12521;43.310;21.876;2023-04-16T15:57:57;18.3;93.0
22676;DHT22;12521;43.310;21.876;2023-04-16T16:02:34;18.2;93.0
22676;DHT22;12521;43.310;21.876;2023-04-16T16:07:10;18.2;93.0
22676;DHT22;12521;43.310;21.876;2023-04-16T16:11:47;18.2;93.0
22676;DHT22;12521;43.310;21.876;2023-04-16T16:16:24;18.0;93.0
22676;DHT22;12521;43.310;21.876;2023-04-16T16:21:02;18.0;93.0
22676;DHT22;12521;43.310;21.876;2023-04-16T16:25:39;17.7;94.0
22676;DHT22;12521;43.310;21.876;2023-04-16T16:30:16;17.7;94.0
22676;DHT22;12521;43.310;21.876;2023-04-16T16:34:53;17.4;95.0
22676;DHT22;12521;43.310;21.876;2023-04-16T16:39:30;17.4;95.0
22676;DHT22;12521;43.310;21.876;2023-04-16T16:44:08;17.2;96.0
22676;DHT22;12521;43.310;21.876;2023-04-16T16:48:44;17.2;96.0
22676;DHT22;12521;43.310;21.876;2023-04-16T16:53:21;17.1;96.0
22676;DHT22;12521;43.310;21.876;2023-04-16T16:57:58;17.1;96.0
22676;DHT22;12521;43.310;21.876;2023-04-16T17:02:35;17.0;96.0
22676;DHT22;12521;43.310;21.876;2023-04-16T17:07:17;17.0;96.0
22676;DHT22;12521;43.310;21.876;2023-04-16T17:11:54;17.0;96.0
22676;DHT22;12521;43.310;21.876;2023-04-16T17:16:30;16.8;96.0
22676;DHT22;12521;43.310;21.876;2023-04-16T17:21:07;16.8;96.0
22676;DHT22;12521;43.310;21.876;2023-04-16T17:25:44;16.6;96.0
22676;DHT22;12521;43.310;21.876;2023-04-16T17:30:21;16.6;96.0
22676;DHT22;12521;43.310;21.876;2023-04-16T17:35:00;16.5;96.0
22676;DHT22;12521;43.310;21.876;2023-04-16T17:39:40;16.5;96.0
22676;DHT22;12521;43.310;21.876;2023-04-16T17:44:16;16.3;96.0
22676;DHT22;12521;43.310;21.876;2023-04-16T17:48:53;16.3;96.0
22676;DHT22;12521;43.310;21.876;2023-04-16T17:53:29;16.2;96.0
22676;DHT22;12521;43.310;21.876;2023-04-16T17:58:05;16.2;96.0
22676;DHT22;12521;43.310;21.876;2023-04-16T18:02:41;16.0;96.0
22676;DHT22;12521;43.310;21.876;2023-04-16T18:07:18;16.0;96.0
22676;DHT22;12521;43.310;21.876;2023-04-16T18:11:54;16.0;96.0
22676;DHT22;12521;43.310;21.876;2023-04-16T18:16:30;15.9;96.0
22676;DHT22;12521;43.310;21.876;2023-04-16T18:21:07;15.9;96.0
22676;DHT22;12521;43.310;21.876;2023-04-16T18:25:43;15.8;96.0
22676;DHT22;12521;43.310;21.876;2023-04-16T18:30:20;15.8;96.0
22676;DHT22;12521;43.310;21.876;2023-04-16T18:34:56;15.8;96.0
22676;DHT22;12521;43.310;21.876;2023-04-16T18:39:33;15.8;96.0
22676;DHT22;12521;43.310;21.876;2023-04-16T18:44:10;15.7;96.0
22676;DHT22;12521;43.310;21.876;2023-04-16T18:48:46;15.7;96.0
22676;DHT22;12521;43.310;21.876;2023-04-16T18:53:23;15.6;96.0
22676;DHT22;12521;43.310;21.876;2023-04-16T18:58:00;15.6;96.0
22676;DHT22;12521;43.310;21.876;2023-04-16T19:02:37;15.5;96.0
22676;DHT22;12521;43.310;21.876;2023-04-16T19:07:15;15.5;96.0
22676;DHT22;12521;43.310;21.876;2023-04-16T19:11:52;15.5;96.0
22676;DHT22;12521;43.310;21.876;2023-04-16T19:16:30;15.5;96.0
22676;DHT22;12521;43.310;21.876;2023-04-16T19:21:07;15.5;96.0
22676;DHT22;12521;43.310;21.876;2023-04-16T19:25:43;15.5;96.0
22676;DHT22;12521;43.310;21.876;2023-04-16T19:30:20;15.5;96.0
22676;DHT22;12521;43.310;21.876;2023-04-16T19:34:57;15.4;96.0
22676;DHT22;12521;43.310;21.876;2023-04-16T19:39:34;15.4;96.0
22676;DHT22;12521;43.310;21.876;2023-04-16T19:44:10;15.4;96.0
22676;DHT22;12521;43.310;21.876;2023-04-16T19:48:46;15.4;96.0
22676;DHT22;12521;43.310;21.876;2023-04-16T19:53:23;15.4;96.0
22676;DHT22;12521;43.310;21.876;2023-04-16T19:57:59;15.4;96.0
22676;DHT22;12521;43.310;21.876;2023-04-16T20:02:36;15.3;96.0
22676;DHT22;12521;43.310;21.876;2023-04-16T20:07:13;15.3;96.0
22676;DHT22;12521;43.310;21.876;2023-04-16T20:11:49;15.3;96.0
22676;DHT22;12521;43.310;21.876;2023-04-16T20:16:26;15.2;96.0
22676;DHT22;12521;43.310;21.876;2023-04-16T20:21:03;15.2;96.0
22676;DHT22;12521;43.310;21.876;2023-04-16T20:25:41;15.2;96.0
22676;DHT22;12521;43.310;21.876;2023-04-16T20:30:18;15.2;96.0
22676;DHT22;12521;43.310;21.876;2023-04-16T20:34:54;15.2;96.0
22676;DHT22;12521;43.310;21.876;2023-04-16T20:39:31;15.2;96.0
22676;DHT22;12521;43.310;21.876;2023-04-16T20:44:07;15.1;96.0
22676;DHT22;12521;43.310;21.876;2023-04-16T20:48:43;15.1;96.0
22676;DHT22;12521;43.310;21.876;2023-04-16T20:53:19;15.0;96.0
22676;DHT22;12521;43.310;21.876;2023-04-16T20:57:56;15.0;96.0
22676;DHT22;12521;43.310;21.876;2023-04-16T21:02:32;15.0;96.0
22676;DHT22;12521;43.310;21.876;2023-04-16T21:07:08;15.0;96.0
22676;DHT22;12521;43.310;21.876;2023-04-16T21:11:45;15.0;96.0
22676;DHT22;12521;43.310;21.876;2023-04-16T21:16:21;14.9;96.0
22676;DHT22;12521;43.310;21.876;2023-04-16T21:20:58;14.9;96.0
22676;DHT22;12521;43.310;21.876;2023-04-16T21:25:34;14.8;96.0
22676;DHT22;12521;43.310;21.876;2023-04-16T21:30:14;14.8;96.0
22676;DHT22;12521;43.310;21.876;2023-04-16T21:34:51;14.8;96.0
22676;DHT22;12521;43.310;21.876;2023-04-16T21:39:28;14.8;96.0
22676;DHT22;12521;43.310;21.876;2023-04-16T21:44:04;14.8;96.0
22676;DHT22;12521;43.310;21.876;2023-04-16T21:48:41;14.8;96.0
22676;DHT22;12521;43.310;21.876;2023-04-16T21:53:17;14.7;96.0
22676;DHT22;12521;43.310;21.876;2023-04-16T21:57:54;14.7;96.0
22676;DHT22;12521;43.310;21.876;2023-04-16T22:02:31;14.7;96.0
22676;DHT22;12521;43.310;21.876;2023-04-16T22:07:08;14.6;96.0
22676;DHT22;12521;43.310;21.876;2023-04-16T22:11:45;14.6;96.0
22676;DHT22;12521;43.310;21.876;2023-04-16T22:16:22;14.6;96.0
22676;DHT22;12521;43.310;21.876;2023-04-16T22:21:00;14.6;96.0
22676;DHT22;12521;43.310;21.876;2023-04-16T22:25:36;14.5;96.0
22676;DHT22;12521;43.310;21.876;2023-04-16T22:30:14;14.5;96.0
22676;DHT22;12521;43.310;21.876;2023-04-16T22:34:51;14.4;96.0
22676;DHT22;12521;43.310;21.876;2023-04-16T22:39:28;14.4;96.0
22676;DHT22;12521;43.310;21.876;2023-04-16T22:44:05;14.4;96.0
22676;DHT22;12521;43.310;21.876;2023-04-16T22:48:41;14.4;96.0
22676;DHT22;12521;43.310;21.876;2023-04-16T22:53:18;14.4;96.0
22676;DHT22;12521;43.310;21.876;2023-04-16T22:57:54;14.4;96.0
22676;DHT22;12521;43.310;21.876;2023-04-16T23:02:31;14.4;96.0
22676;DHT22;12521;43.310;21.876;2023-04-16T23:07:07;14.4;96.0
22676;DHT22;12521;43.310;21.876;2023-04-16T23:11:44;14.4;96.0
22676;DHT22;12521;43.310;21.876;2023-04-16T23:16:20;14.4;96.0
22676;DHT22;12521;43.310;21.876;2023-04-16T23:20:56;14.4;96.0
22676;DHT22;12521;43.310;21.876;2023-04-16T23:25:33;14.3;96.0
22676;DHT22;12521;43.310;21.876;2023-04-16T23:30:10;14.3;96.0
22676;DHT22;12521;43.310;21.876;2023-04-16T23:34:48;14.3;96.0
22676;DHT22;12521;43.310;21.876;2023-04-16T23:39:24;14.3;96.0
22676;DHT22;12521;43.310;21.876;2023-04-16T23:44:00;14.3;96.0
22676;DHT22;12521;43.310;21.876;2023-04-16T23:48:37;14.3;96.0
22676;DHT22;12521;43.310;21.876;2023-04-16T23:53:13;14.2;96.0
22676;DHT22;12521;43.310;21.876;2023-04-16T23:57:50;14.2;96.0
